Time;durP1;ratioP1;P1;durP2;ratioP2;P2;SDS_P1;SDS_P2;PMS_P1;PMS_P2;Temp;Humidity;BMP_temperature;BMP_pressure;BME280_temperature;BME280_humidity;BME280_pressure;Samples;Min_cycle;Max_cycle;Signal;HPM_P1;HPM_P2
2021/10/28 00:14:29;;;;;;;9.57;6.20;;;;;;;0.27;77.69;96824.45;1772214;80;21027;-69
2021/10/28 00:16:58;;;;;;;7.87;4.80;;;;;;;0.33;77.56;96826.02;1774661;81;21050;-69
2021/10/28 00:19:28;;;;;;;6.57;4.63;;;;;;;0.37;77.38;96818.39;1777464;81;21002;-69
2021/10/28 00:21:56;;;;;;;10.47;5.20;;;;;;;0.32;77.13;96820.33;1765450;80;21029;-68
2021/10/28 00:24:23;;;;;;;8.03;5.23;;;;;;;0.30;76.85;96822.84;1769022;80;21051;-67
2021/10/28 00:26:50;;;;;;;6.97;4.80;;;;;;;0.36;77.15;96815.75;1767188;80;21075;-68
2021/10/28 00:29:21;;;;;;;6.90;3.70;;;;;;;0.44;77.26;96813.03;1769358;81;20982;-68
2021/10/28 00:31:48;;;;;;;8.33;5.30;;;;;;;0.42;76.93;96809.48;1773621;80;21023;-68
2021/10/28 00:34:17;;;;;;;9.67;5.73;;;;;;;0.20;76.48;96806.43;1768685;79;20989;-68
2021/10/28 00:36:47;;;;;;;7.53;4.83;;;;;;;0.19;76.94;96812.45;1765393;80;21053;-68
2021/10/28 00:39:15;;;;;;;6.97;4.37;;;;;;;0.16;77.05;96809.33;1771383;80;21048;-68
2021/10/28 00:41:42;;;;;;;6.13;4.17;;;;;;;0.07;76.68;96809.36;1772499;81;21019;-68
2021/10/28 00:44:13;;;;;;;7.00;4.63;;;;;;;-0.06;76.81;96811.44;1779838;81;21038;-68
2021/10/28 00:46:40;;;;;;;8.00;4.53;;;;;;;-0.14;76.74;96799.86;1769250;80;20998;-69
2021/10/28 00:49:10;;;;;;;7.23;5.17;;;;;;;-0.29;78.95;96801.39;1765674;80;20997;-69
2021/10/28 00:51:38;;;;;;;9.47;5.87;;;;;;;-0.27;79.16;96802.35;1775102;80;20988;-69
2021/10/28 00:54:06;;;;;;;6.87;5.53;;;;;;;-0.22;78.95;96803.43;1775133;80;21011;-68
2021/10/28 00:56:33;;;;;;;11.13;5.20;;;;;;;-0.13;78.59;96792.95;1772787;81;21528;-69
2021/10/28 00:59:03;;;;;;;7.27;4.83;;;;;;;-0.07;78.65;96794.11;1765557;80;21018;-68
2021/10/28 01:01:29;;;;;;;7.27;4.83;;;;;;;-0.11;78.81;96805.17;1772587;81;20970;-68
2021/10/28 01:03:57;;;;;;;7.57;4.20;;;;;;;-0.18;79.04;96797.06;1773804;80;21564;-69
2021/10/28 01:06:24;;;;;;;7.93;4.90;;;;;;;-0.14;78.81;96797.27;1772848;81;21030;-68
2021/10/28 01:08:52;;;;;;;7.13;4.87;;;;;;;-0.20;77.96;96802.21;1776797;80;21489;-68
2021/10/28 01:11:19;;;;;;;10.03;5.10;;;;;;;-0.24;78.59;96805.48;1776967;81;21003;-68
2021/10/28 01:13:46;;;;;;;10.77;5.80;;;;;;;-0.26;78.26;96807.13;1775944;81;21049;-68
2021/10/28 01:16:14;;;;;;;11.03;6.10;;;;;;;-0.28;77.75;96803.19;1774606;81;21047;-68
2021/10/28 01:18:42;;;;;;;15.33;5.77;;;;;;;-0.30;78.05;96804.82;1768742;80;21029;-68
2021/10/28 01:21:09;;;;;;;9.67;5.20;;;;;;;-0.26;77.99;96799.34;1771423;80;21501;-68
2021/10/28 01:23:41;;;;;;;11.40;5.10;;;;;;;-0.29;78.42;96799.22;1775306;80;21011;-69
2021/10/28 01:26:12;;;;;;;9.63;5.77;;;;;;;-0.36;78.41;96815.33;1771153;80;21452;-68
2021/10/28 01:28:59;;;;;;;7.47;4.53;;;;;;;-0.44;78.70;96815.00;1767930;80;20998;-68
2021/10/28 01:31:31;;;;;;;4.47;3.60;;;;;;;-0.42;78.56;96819.85;1771625;80;21042;-69
2021/10/28 01:33:59;;;;;;;5.73;4.47;;;;;;;-0.34;78.47;96821.48;1771627;80;21068;-67
2021/10/28 01:36:27;;;;;;;7.30;3.93;;;;;;;-0.41;77.91;96814.25;1775669;80;21007;-68
2021/10/28 01:38:55;;;;;;;3.93;3.00;;;;;;;-0.49;78.19;96820.40;1773672;81;21492;-68
2021/10/28 01:41:22;;;;;;;9.00;4.57;;;;;;;-0.57;77.88;96821.36;1775823;81;21541;-68
2021/10/28 01:43:49;;;;;;;6.73;4.43;;;;;;;-0.69;79.30;96827.30;1773924;81;21057;-68
2021/10/28 01:46:16;;;;;;;7.33;4.67;;;;;;;-0.73;79.29;96822.40;1770235;81;20995;-69
2021/10/28 01:48:43;;;;;;;9.23;5.23;;;;;;;-0.75;79.76;96821.86;1773279;80;21018;-68
2021/10/28 01:51:11;;;;;;;8.20;5.60;;;;;;;-0.68;80.02;96818.69;1778628;81;21019;-67
2021/10/28 01:53:41;;;;;;;6.73;4.40;;;;;;;-0.62;79.99;96814.21;1774689;80;21095;-68
2021/10/28 01:56:09;;;;;;;7.57;4.80;;;;;;;-0.53;79.75;96809.41;1764366;80;21018;-68
2021/10/28 01:58:37;;;;;;;5.70;4.07;;;;;;;-0.45;79.45;96802.88;1771671;80;21019;-68
2021/10/28 02:01:06;;;;;;;8.50;5.03;;;;;;;-0.55;79.42;96808.48;1775717;81;21544;-68
2021/10/28 02:03:34;;;;;;;7.80;5.20;;;;;;;-0.57;79.61;96817.47;1767381;80;21479;-68
2021/10/28 02:06:02;;;;;;;9.40;5.67;;;;;;;-0.56;79.55;96818.35;1759620;80;21011;-68
2021/10/28 02:08:28;;;;;;;9.57;5.23;;;;;;;-0.48;79.37;96816.97;1766768;81;21031;-68
2021/10/28 02:10:55;;;;;;;7.47;4.77;;;;;;;-0.50;79.60;96819.52;1777149;81;21005;-69
2021/10/28 02:13:24;;;;;;;6.13;3.70;;;;;;;-0.55;78.84;96812.37;1769007;80;21048;-68
2021/10/28 02:15:51;;;;;;;4.77;3.73;;;;;;;-0.58;79.00;96813.13;1773016;80;21050;-68
2021/10/28 02:18:17;;;;;;;6.60;4.03;;;;;;;-0.66;78.73;96807.60;1767477;80;21134;-68
2021/10/28 02:20:44;;;;;;;8.13;4.60;;;;;;;-0.69;78.70;96810.03;1768441;80;20986;-68
2021/10/28 02:23:10;;;;;;;8.07;4.97;;;;;;;-0.73;78.71;96814.63;1769500;80;21015;-68
2021/10/28 02:25:37;;;;;;;6.33;4.00;;;;;;;-0.66;79.09;96805.39;1778955;81;21019;-68
2021/10/28 02:28:05;;;;;;;8.10;5.53;;;;;;;-0.57;79.22;96798.03;1768308;80;20993;-68
2021/10/28 02:30:32;;;;;;;9.80;5.80;;;;;;;-0.56;79.75;96793.31;1771489;80;21105;-68
2021/10/28 02:33:00;;;;;;;8.80;5.00;;;;;;;-0.51;79.69;96794.81;1769215;80;21062;-68
2021/10/28 02:35:26;;;;;;;7.80;4.10;;;;;;;-0.43;79.58;96799.91;1773237;80;21104;-67
2021/10/28 02:37:53;;;;;;;11.10;4.80;;;;;;;-0.46;78.92;96795.47;1764315;80;21440;-68
2021/10/28 02:40:19;;;;;;;16.40;4.53;;;;;;;-0.47;78.84;96798.02;1767985;79;21009;-67
2021/10/28 02:42:46;;;;;;;7.83;5.23;;;;;;;-0.49;78.81;96795.77;1769959;80;21015;-68
2021/10/28 02:45:13;;;;;;;5.60;4.07;;;;;;;-0.58;79.05;96797.95;1775970;81;21022;-68
2021/10/28 02:47:40;;;;;;;5.70;4.10;;;;;;;-0.54;78.73;96793.39;1773641;80;21073;-68
2021/10/28 02:50:07;;;;;;;6.47;3.80;;;;;;;-0.60;78.79;96789.25;1767836;80;21007;-68
2021/10/28 02:52:34;;;;;;;8.30;4.30;;;;;;;-0.70;78.63;96789.25;1775796;81;21524;-68
2021/10/28 02:55:04;;;;;;;7.03;3.93;;;;;;;-0.80;78.45;96797.44;1768649;80;20978;-68
2021/10/28 02:57:31;;;;;;;7.13;4.17;;;;;;;-0.93;79.73;96794.30;1764412;80;21053;-67
2021/10/28 02:59:58;;;;;;;7.70;4.23;;;;;;;-0.94;80.23;96788.62;1766422;81;21133;-68
2021/10/28 03:02:25;;;;;;;9.77;4.53;;;;;;;-0.96;79.89;96797.14;1771624;80;21526;-67
2021/10/28 03:04:52;;;;;;;9.27;4.90;;;;;;;-0.88;80.13;96804.45;1770720;80;21104;-67
2021/10/28 03:07:18;;;;;;;7.80;4.50;;;;;;;-0.75;79.93;96804.59;1767396;80;20983;-67
2021/10/28 03:09:45;;;;;;;12.10;4.83;;;;;;;-0.74;79.31;96806.35;1774706;81;21063;-67
2021/10/28 03:12:11;;;;;;;9.17;3.63;;;;;;;-0.68;79.57;96810.53;1765172;80;20999;-68
2021/10/28 03:14:49;;;;;;;6.43;3.10;;;;;;;-0.69;79.07;96806.56;1764343;80;20978;-68
2021/10/28 03:27:43;;;;;;;7.90;4.97;;;;;;;-0.89;79.25;96811.73;1771677;80;21022;-66
2021/10/28 03:30:11;;;;;;;11.27;4.97;;;;;;;-1.02;79.28;96810.71;1769202;81;21141;-67
2021/10/28 03:32:38;;;;;;;6.43;4.40;;;;;;;-1.00;79.59;96822.45;1770060;80;21094;-68
2021/10/28 03:35:12;;;;;;;11.30;4.37;;;;;;;-0.92;79.85;96813.31;1769909;80;21005;-67
2021/10/28 03:59:30;;;;;;;11.10;5.87;;;;;;;-1.27;82.07;96808.70;1765289;80;21550;-68
2021/10/28 04:18:28;;;;;;;10.83;6.43;;;;;;;-1.27;79.17;96815.17;1684387;85;21019;-68
2021/10/28 04:28:55;;;;;;;7.93;4.50;;;;;;;-1.43;80.10;96807.11;1769214;80;21086;-69
2021/10/28 04:31:28;;;;;;;18.57;6.57;;;;;;;-1.35;81.26;96808.34;1777278;81;21496;-67
2021/10/28 04:33:58;;;;;;;10.18;6.15;;;;;;;-1.35;81.12;96813.52;1775997;81;20991;-69
2021/10/28 04:36:29;;;;;;;12.93;7.30;;;;;;;-1.41;80.61;96823.61;1774904;81;21086;-68
2021/10/28 04:38:55;;;;;;;7.10;4.30;;;;;;;-1.34;80.82;96818.28;1770437;80;21490;-68
2021/10/28 04:41:21;;;;;;;5.43;3.60;;;;;;;-1.20;81.12;96820.23;1770487;81;21081;-68
2021/10/28 04:43:48;;;;;;;17.47;8.27;;;;;;;-1.06;81.13;96816.55;1770655;80;21549;-68
2021/10/28 04:46:14;;;;;;;16.10;7.10;;;;;;;-1.02;80.00;96818.48;1777364;81;21086;-68
2021/10/28 04:48:41;;;;;;;87.67;29.37;;;;;;;-1.11;79.09;96820.64;1773828;81;21576;-68
2021/10/28 04:51:08;;;;;;;56.73;19.27;;;;;;;-1.14;79.47;96812.33;1764495;80;21053;-68
2021/10/28 04:53:34;;;;;;;25.77;11.03;;;;;;;-1.21;79.75;96812.88;1766025;80;21023;-68
2021/10/28 04:56:01;;;;;;;20.53;10.13;;;;;;;-1.21;80.18;96811.97;1776227;81;21074;-68
2021/10/28 04:58:27;;;;;;;17.87;7.03;;;;;;;-1.15;80.30;96814.45;1771586;80;21003;-68
2021/10/28 05:00:54;;;;;;;14.67;6.23;;;;;;;-1.09;80.25;96815.13;1769768;80;20997;-68
2021/10/28 05:03:20;;;;;;;8.70;3.87;;;;;;;-1.02;80.19;96821.07;1765655;80;21001;-68
2021/10/28 05:05:47;;;;;;;4.40;3.27;;;;;;;-0.92;80.15;96822.38;1768923;80;21579;-68
2021/10/28 05:08:13;;;;;;;4.40;2.97;;;;;;;-0.83;79.97;96829.28;1767741;80;21132;-68
2021/10/28 05:10:44;;;;;;;7.30;4.07;;;;;;;-0.91;79.49;96830.62;1769132;80;21009;-68
2021/10/28 05:13:13;;;;;;;4.90;2.90;;;;;;;-1.10;79.63;96831.09;1765812;80;21545;-68
2021/10/28 05:15:46;;;;;;;7.13;4.53;;;;;;;-1.15;79.13;96831.28;1767686;80;21023;-68
2021/10/28 05:18:14;;;;;;;4.67;3.25;;;;;;;-1.18;79.23;96838.03;1770833;80;21072;-68
2021/10/28 05:20:41;;;;;;;5.33;2.50;;;;;;;-1.16;79.50;96838.59;1775441;80;20968;-68
2021/10/28 05:23:10;;;;;;;5.87;2.57;;;;;;;-1.14;79.50;96841.23;1769770;80;21124;-68
2021/10/28 05:25:38;;;;;;;4.20;2.53;;;;;;;-1.17;79.19;96840.67;1765360;80;21053;-68
2021/10/28 05:28:06;;;;;;;11.27;4.17;;;;;;;-1.21;79.40;96835.28;1765439;80;21004;-67
2021/10/28 05:30:33;;;;;;;6.80;4.43;;;;;;;-1.27;80.48;96833.71;1768347;80;21092;-67
2021/10/28 05:33:00;;;;;;;6.27;3.30;;;;;;;-1.30;80.20;96834.45;1769357;80;21077;-68
2021/10/28 05:35:28;;;;;;;8.10;4.20;;;;;;;-1.30;80.87;96827.98;1770906;81;21117;-68
2021/10/28 05:37:55;;;;;;;14.53;6.97;;;;;;;-1.14;81.27;96830.87;1771113;80;21011;-68
2021/10/28 05:40:23;;;;;;;12.53;6.67;;;;;;;-1.04;81.08;96825.30;1777065;80;21038;-68
2021/10/28 05:42:52;;;;;;;17.40;9.17;;;;;;;-1.07;80.62;96829.45;1775906;80;21055;-68
2021/10/28 05:45:21;;;;;;;37.77;21.93;;;;;;;-1.01;80.75;96843.55;1768025;80;21092;-67
2021/10/28 05:47:49;;;;;;;28.40;15.17;;;;;;;-0.95;80.35;96850.75;1766485;80;21029;-68
2021/10/28 05:50:19;;;;;;;7.97;4.30;;;;;;;-0.94;79.76;96851.21;1764128;80;21006;-67
2021/10/28 05:52:47;;;;;;;20.03;10.13;;;;;;;-0.92;80.13;96858.23;1768812;80;21552;-68
2021/10/28 05:55:15;;;;;;;23.30;11.63;;;;;;;-0.87;81.11;96861.05;1771917;80;21444;-68
2021/10/28 05:57:42;;;;;;;32.83;15.40;;;;;;;-0.79;80.37;96856.21;1773071;80;21098;-68
2021/10/28 06:00:11;;;;;;;37.70;19.13;;;;;;;-0.88;80.24;96856.28;1774189;80;21309;-68
2021/10/28 06:02:40;;;;;;;35.50;18.30;;;;;;;-0.92;80.21;96861.24;1767977;80;21029;-68
2021/10/28 06:05:07;;;;;;;33.37;17.00;;;;;;;-0.82;80.33;96855.66;1764044;80;21016;-67
2021/10/28 06:07:34;;;;;;;39.07;18.27;;;;;;;-0.64;81.04;96858.19;1775178;80;21094;-68
2021/10/28 06:10:03;;;;;;;20.03;10.60;;;;;;;-0.45;80.92;96864.69;1772106;80;21064;-68
2021/10/28 06:12:37;;;;;;;9.47;5.00;;;;;;;-0.33;80.86;96854.35;1770284;80;21079;-68
2021/10/28 06:15:03;;;;;;;4.50;3.23;;;;;;;-0.26;80.81;96853.39;1770121;80;21007;-68
2021/10/28 06:17:32;;;;;;;4.93;3.50;;;;;;;-0.23;80.55;96856.52;1772415;80;21010;-68
2021/10/28 06:19:59;;;;;;;7.90;5.00;;;;;;;-0.15;80.72;96860.74;1765659;80;21083;-67
2021/10/28 06:22:29;;;;;;;5.50;2.77;;;;;;;-0.05;80.52;96857.34;1766930;81;21536;-68
2021/10/28 06:24:56;;;;;;;6.53;3.90;;;;;;;-0.01;79.88;96856.62;1768218;80;21130;-68
2021/10/28 06:27:24;;;;;;;27.93;15.33;;;;;;;0.01;80.11;96855.41;1776506;79;21050;-68
2021/10/28 06:29:50;;;;;;;32.10;16.43;;;;;;;0.11;80.88;96848.89;1774916;81;21059;-68
2021/10/28 06:32:17;;;;;;;13.60;8.47;;;;;;;0.31;81.20;96846.70;1772790;80;21152;-68
2021/10/28 06:34:45;;;;;;;22.30;11.63;;;;;;;0.50;80.50;96853.94;1779874;81;21018;-68
2021/10/28 06:37:13;;;;;;;10.83;6.40;;;;;;;0.51;80.41;96851.41;1773929;81;21075;-68
2021/10/28 06:39:41;;;;;;;14.40;7.00;;;;;;;0.60;80.24;96856.08;1779910;81;21098;-68
2021/10/28 06:42:11;;;;;;;11.23;6.90;;;;;;;0.62;80.00;96852.72;1779946;81;21520;-68
2021/10/28 06:44:39;;;;;;;13.87;10.23;;;;;;;0.70;79.99;96856.91;1772065;80;21093;-68
2021/10/28 06:47:06;;;;;;;17.23;8.57;;;;;;;0.76;79.72;96848.08;1768240;81;21063;-69
2021/10/28 06:49:37;;;;;;;13.73;7.00;;;;;;;0.81;79.55;96851.75;1778646;80;21038;-68
2021/10/28 06:52:05;;;;;;;10.40;6.40;;;;;;;0.87;79.54;96852.39;1767823;80;21080;-69
2021/10/28 06:54:37;;;;;;;12.23;6.87;;;;;;;0.86;79.69;96854.11;1775643;81;21035;-68
2021/10/28 06:57:18;;;;;;;12.63;8.20;;;;;;;0.98;79.73;96850.20;1762896;80;21065;-68
2021/10/28 07:04:58;;;;;;;16.13;9.33;;;;;;;1.35;80.44;96850.30;1765267;80;21031;-66
2021/10/28 07:07:30;;;;;;;16.50;10.20;;;;;;;1.64;80.39;96844.87;1771381;80;21042;-67
2021/10/28 07:10:14;;;;;;;17.30;10.60;;;;;;;1.83;79.86;96839.89;1773624;79;21017;-67
2021/10/28 07:12:52;;;;;;;21.10;12.10;;;;;;;1.82;78.95;96835.53;1764006;79;21053;-68
2021/10/28 07:15:34;;;;;;;13.57;8.90;;;;;;;1.89;79.30;96838.79;1767133;80;21018;-68
2021/10/28 07:18:02;;;;;;;15.10;8.67;;;;;;;2.08;79.03;96836.42;1769139;80;21030;-68
2021/10/28 07:20:54;;;;;;;20.17;10.47;;;;;;;2.23;78.77;96838.24;1771085;80;21018;-69
2021/10/28 07:31:21;;;;;;;87.40;34.30;;;;;;;2.48;78.25;96853.39;1768330;80;21552;-69
2021/10/28 07:36:37;;;;;;;55.53;23.93;;;;;;;2.76;78.13;96848.64;1764532;80;21514;-68
2021/10/28 07:38:57;;;;;;;57.47;28.60;;;;;;;2.85;77.83;96846.34;1766023;81;21047;-69
2021/10/28 08:22:07;;;;;;;10.93;6.00;;;;;;;6.90;66.76;96797.31;1777551;81;21023;-68
2021/10/28 08:28:39;;;;;;;13.63;6.97;;;;;;;7.19;66.05;96787.24;1772117;81;20992;-68
2021/10/28 08:29:49;;;;;;;17.50;7.87;;;;;;;7.74;64.65;96781.81;1775881;81;21103;-65
2021/10/28 08:32:16;;;;;;;11.10;6.33;;;;;;;8.02;62.61;96776.42;1764159;80;21045;-66
2021/10/28 08:34:45;;;;;;;93.43;29.60;;;;;;;8.27;62.74;96764.83;1775865;81;21003;-65
2021/10/28 08:37:15;;;;;;;12.47;6.20;;;;;;;8.46;61.19;96769.40;1777821;81;21053;-65
2021/10/28 08:39:46;;;;;;;166.93;72.33;;;;;;;8.66;54.34;96761.67;1768192;80;21064;-65
2021/10/28 08:42:17;;;;;;;29.77;19.20;;;;;;;8.83;54.84;96756.53;1770457;80;22476;-65
2021/10/28 08:44:49;;;;;;;195.93;53.27;;;;;;;9.05;54.89;96751.86;1772120;80;21033;-66
2021/10/28 08:47:17;;;;;;;38.47;13.40;;;;;;;9.28;56.93;96748.03;1772465;81;21066;-66
2021/10/28 08:49:57;;;;;;;17.50;7.37;;;;;;;9.51;55.43;96759.98;1772299;80;21042;-66
2021/10/28 08:54:57;;;;;;;21.10;8.90;;;;;;;9.87;55.07;96756.16;1771723;80;21491;-66
2021/10/28 09:25:35;;;;;;;20.25;9.83;;;;;;;11.61;46.76;96739.33;1770413;80;21599;-68
2021/10/28 09:30:53;;;;;;;61.50;31.17;;;;;;;11.92;43.15;96737.91;1767424;80;21043;-68
2021/10/28 09:33:32;;;;;;;55.98;25.60;;;;;;;12.02;44.50;96733.42;1778629;80;21114;-67
2021/10/28 09:36:11;;;;;;;12.43;6.10;;;;;;;12.16;45.35;96739.52;1766696;80;21475;-68
2021/10/28 09:44:00;;;;;;;17.83;8.93;;;;;;;12.53;41.16;96722.92;1770034;80;21835;-66
2021/10/28 09:46:36;;;;;;;49.20;20.10;;;;;;;12.67;43.81;96721.47;1764118;80;21064;-66
2021/10/28 09:51:51;;;;;;;32.97;13.53;;;;;;;13.03;44.79;96724.69;1775499;81;21516;-65
2021/10/28 09:59:55;;;;;;;7.95;5.50;;;;;;;13.46;41.88;96728.69;1768789;80;21153;-68
2021/10/28 10:05:16;;;;;;;8.10;4.85;;;;;;;13.87;40.71;96722.84;1776393;81;21116;-67
2021/10/28 10:07:40;;;;;;;6.97;5.00;;;;;;;14.29;40.46;96712.52;1770530;80;21035;-68
2021/10/28 10:10:07;;;;;;;4.70;3.87;;;;;;;14.76;39.67;96703.38;1771543;80;21089;-68
2021/10/28 10:12:37;;;;;;;82.97;31.37;;;;;;;15.13;37.87;96696.48;1773341;81;21106;-68
2021/10/28 10:15:05;;;;;;;30.37;12.33;;;;;;;15.51;38.72;96696.19;1774209;81;21046;-67
2021/10/28 10:17:33;;;;;;;19.00;9.38;;;;;;;15.91;39.24;96698.50;1767083;80;21485;-68
2021/10/28 10:20:01;;;;;;;63.40;26.52;;;;;;;16.27;35.95;96692.78;1773238;80;21657;-68
2021/10/28 10:25:59;;;;;;;8.65;5.10;;;;;;;17.14;35.44;96691.09;1767681;80;21525;-68
2021/10/28 10:28:58;;;;;;;8.20;4.87;;;;;;;17.44;34.62;96688.50;1773611;81;21031;-68
2021/10/28 11:24:17;;;;;;;38.63;18.27;;;;;;;21.44;26.60;96642.36;1768999;80;21113;-69
2021/10/28 12:47:34;;;;;;;12.80;7.50;;;;;;;25.18;19.04;96567.07;1771697;80;21049;-68
2021/10/28 12:50:18;;;;;;;17.10;9.25;;;;;;;25.57;19.54;96561.00;1763403;81;20978;-69
2021/10/28 12:52:51;;;;;;;14.40;6.10;;;;;;;25.74;19.43;96560.42;1770183;80;21039;-69
2021/10/28 13:48:12;;;;;;;9.03;6.67;;;;;;;21.73;24.87;96548.37;1769261;80;21066;-69
2021/10/28 13:54:17;;;;;;;14.10;6.67;;;;;;;16.70;32.86;96562.95;1767888;80;21052;-68
2021/10/28 13:56:55;;;;;;;8.75;6.53;;;;;;;15.65;35.67;96566.88;1764754;80;21070;-68
2021/10/28 14:16:16;;;;;;;6.47;4.53;;;;;;;12.06;42.14;96589.68;1775506;81;21049;-68
2021/10/28 14:23:46;;;;;;;7.30;4.80;;;;;;;11.13;44.11;96586.73;1767909;80;21061;-68
2021/10/28 15:28:34;;;;;;;11.77;6.67;;;;;;;7.04;57.18;96606.84;1771355;80;21021;-69
2021/10/28 15:31:11;;;;;;;11.50;5.97;;;;;;;7.01;58.96;96611.19;1771862;80;21035;-69
2021/10/28 15:36:17;;;;;;;12.43;6.50;;;;;;;6.89;60.06;96610.16;1769381;80;21061;-67
2021/10/28 15:50:22;;;;;;;15.53;7.80;;;;;;;6.44;62.20;96612.64;1774231;81;21078;-68
2021/10/28 15:52:54;;;;;;;13.13;7.60;;;;;;;6.41;60.20;96623.52;1767836;80;21044;-68
2021/10/28 16:00:08;;;;;;;12.37;7.27;;;;;;;6.30;60.17;96618.14;1766803;80;21054;-68
2021/10/28 16:21:54;;;;;;;11.30;7.47;;;;;;;5.72;62.71;96640.73;1768944;80;21056;-67
2021/10/28 16:24:27;;;;;;;;;;;;;;;5.64;63.91;96640.61;1778853;81;21520;-66
2021/10/28 16:26:56;;;;;;;15.53;8.00;;;;;;;5.56;64.33;96643.53;1762276;80;20124;-67
2021/10/28 16:29:25;;;;;;;16.97;9.53;;;;;;;5.51;63.05;96653.03;1766771;80;21121;-67
2021/10/28 16:31:53;;;;;;;22.03;10.93;;;;;;;5.52;62.35;96645.22;1768062;80;21019;-68
2021/10/28 16:34:20;;;;;;;21.90;10.63;;;;;;;5.54;62.68;96643.92;1768661;80;21026;-67
2021/10/28 16:36:48;;;;;;;15.67;9.03;;;;;;;5.56;61.93;96644.40;1774021;81;20978;-68
2021/10/28 16:39:16;;;;;;;29.90;11.37;;;;;;;5.43;64.89;96648.53;1773781;80;21507;-67
2021/10/28 16:41:48;;;;;;;21.27;11.50;;;;;;;5.38;62.37;96648.01;1768088;80;21032;-68
2021/10/28 16:44:16;;;;;;;20.93;9.67;;;;;;;5.33;63.15;96642.69;1769378;79;21021;-68
2021/10/28 16:46:45;;;;;;;22.30;9.07;;;;;;;5.31;63.19;96643.51;1771807;80;20987;-68
2021/10/28 16:49:13;;;;;;;18.47;9.27;;;;;;;5.25;64.18;96642.09;1776104;80;21509;-68
2021/10/28 16:51:41;;;;;;;12.97;7.50;;;;;;;5.23;63.43;96646.41;1775471;81;20999;-68
2021/10/28 16:54:09;;;;;;;14.20;8.10;;;;;;;5.07;64.08;96646.55;1769876;80;20997;-67
2021/10/28 16:56:35;;;;;;;12.93;7.03;;;;;;;5.07;63.13;96646.13;1765134;80;21518;-67
2021/10/28 16:59:03;;;;;;;16.30;8.07;;;;;;;4.97;65.35;96642.88;1766075;80;21052;-67
2021/10/28 17:01:30;;;;;;;15.87;9.03;;;;;;;4.94;63.68;96644.12;1773120;81;21019;-67
2021/10/28 17:03:57;;;;;;;18.70;8.87;;;;;;;4.94;63.34;96633.23;1766676;80;21015;-67
2021/10/28 17:06:23;;;;;;;15.13;8.50;;;;;;;5.01;63.11;96642.06;1768008;80;21061;-68
2021/10/28 17:08:54;;;;;;;14.33;7.70;;;;;;;4.99;62.21;96638.56;1767660;80;21074;-67
2021/10/28 17:11:18;;;;;;;14.77;6.93;;;;;;;4.88;64.63;96635.70;1764730;79;21065;-66
2021/10/28 17:13:45;;;;;;;12.83;7.03;;;;;;;4.66;65.98;96634.80;1764188;80;20982;-67
2021/10/28 17:16:12;;;;;;;15.10;6.97;;;;;;;4.44;67.25;96646.55;1773068;81;21069;-67
2021/10/28 17:18:38;;;;;;;11.57;6.37;;;;;;;4.25;67.12;96642.20;1767861;80;21077;-68
2021/10/28 17:21:06;;;;;;;13.03;7.10;;;;;;;4.13;67.96;96644.53;1767206;80;20992;-68
2021/10/28 17:23:41;;;;;;;15.07;7.47;;;;;;;4.04;68.90;96649.56;1777008;81;21023;-68
2021/10/28 17:26:07;;;;;;;14.13;7.60;;;;;;;4.07;68.89;96657.03;1771517;80;21045;-69
2021/10/28 17:28:35;;;;;;;12.03;7.43;;;;;;;4.12;68.30;96654.53;1772234;80;21027;-68
2021/10/28 17:31:05;;;;;;;13.67;7.63;;;;;;;4.12;68.97;96655.41;1776902;80;21077;-68
2021/10/28 17:33:33;;;;;;;14.60;8.47;;;;;;;4.10;68.52;96654.91;1764485;80;21021;-68
2021/10/28 17:36:03;;;;;;;15.57;8.27;;;;;;;4.17;67.41;96662.05;1774032;80;21091;-68
2021/10/28 17:38:29;;;;;;;14.00;8.87;;;;;;;4.24;66.58;96655.25;1771083;80;21535;-68
2021/10/28 17:40:56;;;;;;;15.20;8.97;;;;;;;4.29;66.60;96651.88;1764038;80;21048;-67
2021/10/28 17:43:25;;;;;;;11.97;8.13;;;;;;;4.32;65.58;96649.77;1771902;80;21086;-68
2021/10/28 17:45:56;;;;;;;14.80;8.53;;;;;;;4.27;66.37;96655.31;1778503;81;21027;-68
2021/10/28 17:48:20;;;;;;;14.40;8.33;;;;;;;4.28;66.17;96650.13;1767841;80;21090;-67
2021/10/28 17:50:47;;;;;;;13.40;7.67;;;;;;;4.25;66.20;96652.65;1775435;80;21030;-66
2021/10/28 17:53:13;;;;;;;12.33;6.63;;;;;;;4.16;68.19;96653.77;1774941;81;21013;-67
2021/10/28 17:55:40;;;;;;;13.73;7.43;;;;;;;4.09;67.74;96655.77;1766261;80;21085;-68
2021/10/28 17:58:07;;;;;;;17.03;10.73;;;;;;;3.93;69.03;96658.84;1765766;80;21556;-68
2021/10/28 18:00:34;;;;;;;13.67;9.13;;;;;;;3.90;67.69;96657.05;1774266;81;21089;-68
2021/10/28 18:03:03;;;;;;;14.73;8.93;;;;;;;3.95;67.14;96655.42;1772833;81;21528;-68
2021/10/28 18:05:30;;;;;;;14.73;8.90;;;;;;;3.97;66.94;96652.86;1775978;81;20999;-68
2021/10/28 18:07:56;;;;;;;16.50;8.93;;;;;;;3.99;66.31;96659.02;1763327;80;21049;-68
2021/10/28 18:10:23;;;;;;;15.10;8.10;;;;;;;3.96;66.41;96657.21;1765319;80;21019;-69
2021/10/28 18:12:49;;;;;;;11.27;6.50;;;;;;;3.99;67.66;96664.23;1772192;80;20983;-68
2021/10/28 18:15:15;;;;;;;13.37;7.30;;;;;;;3.86;69.40;96664.36;1774103;80;21041;-68
2021/10/28 18:17:42;;;;;;;14.40;7.47;;;;;;;3.71;69.72;96658.77;1766400;80;21057;-68
2021/10/28 18:20:09;;;;;;;14.80;7.40;;;;;;;3.60;70.33;96661.99;1765745;80;21064;-68
2021/10/28 18:22:39;;;;;;;14.23;7.50;;;;;;;3.62;69.40;96658.97;1773147;80;21077;-68
2021/10/28 18:25:09;;;;;;;15.80;7.90;;;;;;;3.70;69.96;96660.47;1767673;80;21575;-67
2021/10/28 18:27:40;;;;;;;13.57;7.77;;;;;;;3.77;69.24;96657.17;1766560;80;21023;-68
2021/10/28 18:30:11;;;;;;;14.83;7.57;;;;;;;3.84;68.95;96655.17;1764323;80;21578;-68
2021/10/28 18:32:41;;;;;;;14.80;8.00;;;;;;;3.77;69.05;96650.64;1766069;80;21021;-68
2021/10/28 18:35:11;;;;;;;11.50;7.53;;;;;;;3.79;69.30;96650.70;1760522;80;21013;-68
2021/10/28 18:37:44;;;;;;;11.00;6.20;;;;;;;3.83;69.08;96653.42;1764437;80;21046;-68
2021/10/28 18:40:13;;;;;;;11.55;7.10;;;;;;;3.77;69.41;96650.64;1765578;80;21023;-68
2021/10/28 18:42:40;;;;;;;10.70;7.00;;;;;;;3.70;69.26;96648.72;1766544;80;21086;-67
2021/10/28 18:45:08;;;;;;;19.80;8.83;;;;;;;3.74;69.09;96657.10;1778700;81;21054;-67
2021/10/28 18:47:35;;;;;;;13.63;7.73;;;;;;;3.73;68.69;96654.05;1772093;80;21042;-68
2021/10/28 18:50:06;;;;;;;15.70;7.67;;;;;;;3.75;68.96;96654.06;1769834;80;21023;-68
2021/10/28 18:52:32;;;;;;;11.67;7.03;;;;;;;3.71;69.57;96658.34;1770761;80;21565;-68
2021/10/28 18:54:59;;;;;;;14.77;7.90;;;;;;;3.61;69.49;96659.83;1745064;80;21574;-67
2021/10/28 18:57:26;;;;;;;12.03;6.10;;;;;;;3.49;69.67;96654.72;1764161;80;21033;-69
2021/10/28 18:59:53;;;;;;;15.03;8.03;;;;;;;3.32;70.33;96656.88;1770430;80;21027;-68
2021/10/28 19:02:20;;;;;;;14.43;7.73;;;;;;;3.28;69.51;96656.36;1772578;80;21027;-68
2021/10/28 19:04:48;;;;;;;8.30;5.73;;;;;;;3.29;70.00;96660.29;1768416;80;21021;-67
2021/10/28 19:07:15;;;;;;;12.47;7.47;;;;;;;3.28;70.28;96656.36;1765386;80;21053;-68
2021/10/28 19:09:42;;;;;;;14.17;7.90;;;;;;;3.14;69.89;96659.88;1769701;81;21537;-67
2021/10/28 19:12:09;;;;;;;14.00;7.50;;;;;;;3.13;70.20;96659.43;1779250;81;21063;-68
2021/10/28 19:14:42;;;;;;;10.43;6.43;;;;;;;3.13;69.93;96654.22;1773370;81;21103;-67
2021/10/28 19:17:04;;;;;;;12.27;7.03;;;;;;;3.10;70.77;96659.32;1778414;80;21020;-68
2021/10/28 19:19:30;;;;;;;13.93;7.77;;;;;;;3.01;71.08;96650.84;1777039;81;21532;-67
2021/10/28 19:21:59;;;;;;;11.53;6.40;;;;;;;3.05;70.30;96651.40;1773024;80;21560;-68
2021/10/28 19:24:25;;;;;;;9.30;6.20;;;;;;;3.06;70.58;96653.58;1770637;80;21034;-68
2021/10/28 19:26:52;;;;;;;10.97;5.50;;;;;;;2.93;71.11;96651.05;1769770;79;21061;-69
2021/10/28 19:29:20;;;;;;;11.97;7.03;;;;;;;2.82;71.12;96650.73;1770520;80;21013;-68
2021/10/28 19:31:57;;;;;;;15.23;8.53;;;;;;;2.82;70.87;96648.13;1769886;80;20995;-68
2021/10/28 19:34:22;;;;;;;12.87;7.27;;;;;;;2.89;70.64;96646.59;1770747;80;21041;-68
2021/10/28 19:36:59;;;;;;;12.70;7.57;;;;;;;2.93;71.30;96652.36;1773330;80;21003;-69
2021/10/28 19:39:32;;;;;;;12.20;7.47;;;;;;;2.93;71.83;96644.11;1774503;80;21585;-68
2021/10/28 19:47:13;;;;;;;10.33;5.97;;;;;;;2.88;71.58;96646.13;1768403;80;21038;-68
2021/10/28 19:49:37;;;;;;;13.03;7.40;;;;;;;2.83;72.62;96645.13;1772327;81;21062;-68
2021/10/28 19:52:07;;;;;;;11.80;6.70;;;;;;;2.68;72.29;96652.08;1777203;81;21094;-67
2021/10/28 19:54:35;;;;;;;10.87;7.77;;;;;;;2.56;73.02;96640.45;1765929;80;21159;-67
2021/10/28 19:57:03;;;;;;;17.63;8.93;;;;;;;2.56;72.85;96642.17;1772479;80;21633;-68
2021/10/28 19:59:34;;;;;;;15.20;8.07;;;;;;;2.66;73.20;96648.55;1754006;81;21114;-67